Terminal Aerodrome Forecast
Issued by NWS

Home | Current Version | Previous Version | Text Only | Print | Product List | Glossary On
Versions: 1 2 3 4 5 6 7 8 9 10 11 12 13 14 15 16 17 18 19 20 21 22 23 24 25 26 27 28 29 30 31 32 33 34 35 36 37 38 39 40 41 42 43
000
FTUS41 KBOX 182346
TAFBED
TAF
KBED 182346Z 1900/1924 09004KT P6SM -RA BKN025 OVC045
     FM190300 17006KT 5SM -SHRA OVC015
     FM191100 20013G31KT 3SM -SHRA OVC008
     FM191600 22015G33KT P6SM VCSH BKN020
     FM191800 28017G40KT P6SM SCT050=

USA.gov is the U.S. government's official web portal to all federal, state and local government web resources and services.